createdAt,value
2019-01-27T00:01:29.504Z,93.80
2019-01-27T00:03:55.976Z,93.90
2019-01-27T00:06:22.404Z,93.90
2019-01-27T00:08:48.925Z,93.90
2019-01-27T00:11:15.427Z,93.80
2019-01-27T00:13:41.776Z,93.80
2019-01-27T00:16:08.331Z,93.90
2019-01-27T00:18:34.906Z,93.80
2019-01-27T00:21:01.286Z,93.90
2019-01-27T00:23:27.669Z,94.00
2019-01-27T00:25:54.079Z,93.80
2019-01-27T00:28:20.491Z,93.60
2019-01-27T00:30:46.961Z,93.80
2019-01-27T00:33:13.252Z,93.70
2019-01-27T00:35:39.625Z,93.50
2019-01-27T00:38:06.083Z,93.30
2019-01-27T00:40:32.592Z,93.20
2019-01-27T00:42:58.930Z,92.90
2019-01-27T00:45:25.327Z,92.70
2019-01-27T00:47:51.612Z,92.50
2019-01-27T00:50:18.341Z,92.40
2019-01-27T00:52:44.647Z,92.20
2019-01-27T00:55:13.936Z,92.10
2019-01-27T00:57:40.391Z,91.80
2019-01-27T01:00:16.414Z,91.90
2019-01-27T01:02:42.861Z,91.80
2019-01-27T01:05:09.306Z,91.80
2019-01-27T01:07:35.803Z,91.80
2019-01-27T01:10:05.284Z,91.80
2019-01-27T01:12:31.842Z,91.70
2019-01-27T01:14:58.304Z,91.80
2019-01-27T01:17:24.569Z,92.00
2019-01-27T01:19:50.923Z,92.20
2019-01-27T01:22:17.617Z,92.30
2019-01-27T01:24:43.856Z,92.10
2019-01-27T01:27:10.320Z,91.90
2019-01-27T01:29:36.714Z,92.00
2019-01-27T01:32:03.208Z,91.90
2019-01-27T01:34:29.487Z,92.00
2019-01-27T01:36:55.786Z,92.00
2019-01-27T01:39:22.087Z,92.20
2019-01-27T01:41:48.518Z,92.20
2019-01-27T01:44:14.832Z,92.20
2019-01-27T01:46:41.279Z,92.00
2019-01-27T01:49:07.784Z,92.10
2019-01-27T01:51:34.339Z,92.00
2019-01-27T01:54:00.685Z,92.00
2019-01-27T01:56:27.145Z,92.10
2019-01-27T01:58:53.522Z,92.20
2019-01-27T02:01:20.011Z,92.30
2019-01-27T02:03:46.387Z,92.40
2019-01-27T02:06:12.730Z,92.40
2019-01-27T02:08:39.176Z,92.50
2019-01-27T02:11:05.662Z,92.60
2019-01-27T02:13:32.126Z,92.50
2019-01-27T02:16:00.631Z,92.70
2019-01-27T02:18:27.179Z,92.80
2019-01-27T02:20:53.687Z,93.00
2019-01-27T02:23:20.318Z,92.80
2019-01-27T02:25:46.760Z,92.80
2019-01-27T02:28:13.243Z,92.60
2019-01-27T02:30:39.688Z,92.70
2019-01-27T02:33:06.264Z,92.60
2019-01-27T02:35:32.817Z,92.50
2019-01-27T02:37:59.098Z,92.50
2019-01-27T02:40:25.372Z,92.30
2019-01-27T02:42:51.779Z,92.40
2019-01-27T02:45:18.161Z,92.20
2019-01-27T02:47:44.557Z,92.40
2019-01-27T02:50:11.459Z,92.40
2019-01-27T02:52:37.894Z,92.50
2019-01-27T02:55:05.974Z,92.60
2019-01-27T02:57:32.450Z,92.80
2019-01-27T02:59:58.787Z,92.90
2019-01-27T03:02:25.276Z,92.90
2019-01-27T03:04:52.316Z,93.00
2019-01-27T03:07:20.712Z,93.10
2019-01-27T03:09:47.262Z,93.00
2019-01-27T03:12:13.705Z,93.10
2019-01-27T03:14:39.957Z,92.80
2019-01-27T03:17:06.523Z,92.90
2019-01-27T03:19:32.893Z,93.00
2019-01-27T03:21:59.423Z,92.80
2019-01-27T03:24:25.781Z,92.70
2019-01-27T03:26:52.159Z,92.60
2019-01-27T03:29:18.675Z,92.60
2019-01-27T03:31:45.484Z,92.80
2019-01-27T03:34:11.989Z,92.40
2019-01-27T03:36:38.386Z,92.30
2019-01-27T03:39:10.402Z,92.40
2019-01-27T03:41:36.888Z,92.20
2019-01-27T03:44:04.250Z,92.00
2019-01-27T03:46:30.697Z,92.10
2019-01-27T03:48:57.089Z,92.00
2019-01-27T03:51:23.461Z,92.00
2019-01-27T03:53:49.843Z,92.00
2019-01-27T03:56:16.339Z,91.90
2019-01-27T03:58:42.849Z,91.90
2019-01-27T04:01:09.293Z,91.90
2019-01-27T04:03:35.605Z,91.90
2019-01-27T04:06:02.207Z,91.80
2019-01-27T04:08:28.533Z,91.90
2019-01-27T04:10:54.805Z,91.80
2019-01-27T04:13:21.047Z,91.70
2019-01-27T04:15:47.542Z,91.70
2019-01-27T04:18:13.930Z,91.80
2019-01-27T04:20:40.408Z,91.70
2019-01-27T04:23:06.678Z,91.70
2019-01-27T04:25:33.050Z,91.90
2019-01-27T04:27:59.354Z,91.90
2019-01-27T04:30:27.710Z,91.70
2019-01-27T04:32:54.204Z,91.60
2019-01-27T04:35:20.593Z,91.50
2019-01-27T04:37:47.034Z,91.50
2019-01-27T04:40:16.027Z,91.50
2019-01-27T04:42:42.613Z,91.40
2019-01-27T04:45:11.811Z,91.50
2019-01-27T04:47:38.107Z,91.40
2019-01-27T04:50:08.214Z,91.20
2019-01-27T04:52:34.508Z,91.10
2019-01-27T04:55:00.947Z,91.10
2019-01-27T04:57:27.207Z,91.10
2019-01-27T04:59:53.537Z,91.00
2019-01-27T05:02:19.869Z,91.10
2019-01-27T05:04:46.209Z,91.10
2019-01-27T05:07:12.805Z,91.00
2019-01-27T05:09:39.115Z,91.10
2019-01-27T05:12:05.588Z,91.20
2019-01-27T05:14:31.930Z,91.20
2019-01-27T05:16:58.195Z,91.20
2019-01-27T05:19:24.556Z,91.20
2019-01-27T05:21:50.862Z,91.20
2019-01-27T05:24:17.381Z,91.30
2019-01-27T05:26:43.755Z,91.30
2019-01-27T05:29:10.119Z,91.10
2019-01-27T05:31:36.498Z,91.10
2019-01-27T05:34:03.128Z,91.40
2019-01-27T05:36:29.474Z,91.60
2019-01-27T05:38:55.886Z,91.70
2019-01-27T05:41:22.187Z,91.70
2019-01-27T05:43:48.467Z,92.20
2019-01-27T05:46:14.962Z,91.90
2019-01-27T05:48:41.312Z,92.10
2019-01-27T05:51:07.712Z,92.20
2019-01-27T05:53:33.972Z,92.20
2019-01-27T05:56:00.274Z,92.20
2019-01-27T05:58:26.637Z,92.40
2019-01-27T06:00:52.996Z,92.40
2019-01-27T06:03:20.250Z,92.30
2019-01-27T06:05:46.497Z,92.30
2019-01-27T06:08:12.849Z,92.40
2019-01-27T06:10:39.539Z,92.20
2019-01-27T06:13:06.022Z,92.20
2019-01-27T06:15:43.805Z,92.20
2019-01-27T06:18:09.361Z,92.20
2019-01-27T06:20:35.717Z,92.20
2019-01-27T06:23:09.984Z,92.10
2019-01-27T06:25:37.395Z,91.80
2019-01-27T06:28:09.822Z,91.70
2019-01-27T06:30:36.269Z,91.70
2019-01-27T06:33:10.575Z,91.70
2019-01-27T06:35:37.737Z,91.90
2019-01-27T06:38:05.812Z,92.00
2019-01-27T06:43:23.901Z,92.00
2019-01-27T06:45:53.713Z,91.90
2019-01-27T06:48:21.947Z,91.80
2019-01-27T06:50:54.021Z,91.70
2019-01-27T06:53:20.378Z,91.70
2019-01-27T06:55:46.651Z,91.80
2019-01-27T06:58:13.892Z,92.00
2019-01-27T07:00:54.866Z,92.00
2019-01-27T07:03:26.059Z,92.00
2019-01-27T07:05:55.843Z,91.90
2019-01-27T07:08:42.124Z,92.00
2019-01-27T07:11:19.433Z,92.00
2019-01-27T07:14:04.220Z,92.10
2019-01-27T07:16:35.342Z,92.40
2019-01-27T07:19:06.517Z,92.60
2019-01-27T07:21:34.925Z,92.50
2019-01-27T07:24:09.098Z,92.60
2019-01-27T07:26:54.137Z,92.50
2019-01-27T07:29:39.200Z,92.40
2019-01-27T07:32:24.072Z,92.30
2019-01-27T07:34:58.050Z,92.20
2019-01-27T07:37:32.424Z,92.20
2019-01-27T07:40:00.770Z,92.30
2019-01-27T07:42:29.167Z,92.40
2019-01-27T07:44:57.424Z,92.40
2019-01-27T07:47:34.367Z,92.40
2019-01-27T07:50:08.283Z,92.60
2019-01-27T07:52:39.469Z,92.60
2019-01-27T07:55:24.563Z,92.50
2019-01-27T07:58:01.826Z,92.50
2019-01-27T08:00:35.773Z,92.60
2019-01-27T08:03:20.541Z,92.70
2019-01-27T08:05:54.975Z,92.70
2019-01-27T08:08:32.179Z,92.80
2019-01-27T08:11:00.582Z,92.80
2019-01-27T08:13:28.967Z,92.80
2019-01-27T08:16:00.107Z,92.60
2019-01-27T08:18:46.338Z,92.50
2019-01-27T08:21:14.615Z,92.40
2019-01-27T08:23:52.017Z,92.40
2019-01-27T08:26:26.128Z,92.50
2019-01-27T08:28:56.997Z,92.50
2019-01-27T08:31:27.953Z,92.50
2019-01-27T08:33:59.281Z,92.50
2019-01-27T08:36:33.503Z,92.50
2019-01-27T08:39:07.701Z,92.30
2019-01-27T08:41:52.242Z,92.40
2019-01-27T08:44:20.595Z,92.30
2019-01-27T08:47:03.871Z,92.30
2019-01-27T08:49:30.290Z,92.20
2019-01-27T08:51:56.886Z,92.40
2019-01-27T08:54:23.252Z,92.10
2019-01-27T08:56:49.482Z,92.10
2019-01-27T08:59:15.896Z,92.00
2019-01-27T09:01:59.436Z,92.20
2019-01-27T09:04:30.558Z,91.90
2019-01-27T09:07:01.917Z,91.90
2019-01-27T09:09:45.733Z,91.60
2019-01-27T09:12:18.642Z,91.50
2019-01-27T09:14:53.089Z,91.90
2019-01-27T09:17:30.217Z,92.00
2019-01-27T09:19:58.526Z,91.90
2019-01-27T09:22:26.903Z,91.50
2019-01-27T09:25:04.380Z,91.30
2019-01-27T09:27:44.752Z,91.20
2019-01-27T09:30:32.790Z,90.90
2019-01-27T09:33:17.638Z,91.10
2019-01-27T09:35:46.047Z,91.10
2019-01-27T09:38:29.568Z,91.30
2019-01-27T09:41:00.695Z,91.20
2019-01-27T09:43:34.767Z,90.90
2019-01-27T09:46:17.855Z,90.90
2019-01-27T09:48:49.199Z,91.00
2019-01-27T09:51:32.539Z,91.30
2019-01-27T09:54:07.143Z,90.60
2019-01-27T09:56:35.497Z,88.70
2019-01-27T09:59:06.780Z,88.20
2019-01-27T10:01:35.060Z,87.20
2019-01-27T10:04:06.413Z,87.50
2019-01-27T10:06:46.667Z,87.30
2019-01-27T10:09:38.526Z,86.10
2019-01-27T10:12:06.890Z,83.30
2019-01-27T10:14:51.794Z,81.80
2019-01-27T10:17:20.039Z,83.20
2019-01-27T10:20:00.420Z,83.20
2019-01-27T10:22:28.666Z,81.50
2019-01-27T10:24:59.871Z,82.70
2019-01-27T10:27:34.430Z,83.10
2019-01-27T10:30:17.682Z,83.40
2019-01-27T10:32:48.840Z,81.80
2019-01-27T10:35:23.374Z,81.90
2019-01-27T10:37:54.405Z,82.50
2019-01-27T10:40:25.526Z,83.20
2019-01-27T10:42:53.827Z,82.90
2019-01-27T10:45:22.062Z,83.20
2019-01-27T10:47:53.011Z,82.10
2019-01-27T10:50:21.487Z,83.20
2019-01-27T10:53:02.011Z,83.60
2019-01-27T10:55:36.261Z,83.80
2019-01-27T10:58:21.646Z,85.30
2019-01-27T11:01:02.531Z,87.30
2019-01-27T11:03:33.770Z,89.80
2019-01-27T11:06:21.223Z,87.60
2019-01-27T11:08:49.385Z,87.90
2019-01-27T11:11:23.572Z,86.60
2019-01-27T11:13:51.859Z,87.00
2019-01-27T11:16:26.462Z,85.50
2019-01-27T11:18:54.837Z,85.70
2019-01-27T11:21:29.288Z,83.40
2019-01-27T11:24:01.022Z,81.50
2019-01-27T11:26:34.849Z,77.70
2019-01-27T11:29:11.822Z,79.60
2019-01-27T11:31:51.951Z,79.40
2019-01-27T11:34:23.817Z,81.20
2019-01-27T11:36:52.479Z,80.10
2019-01-27T11:39:27.568Z,78.60
2019-01-27T11:42:06.543Z,76.70
2019-01-27T11:44:52.835Z,77.90
2019-01-27T11:47:40.122Z,77.80
2019-01-27T11:50:12.505Z,79.00
2019-01-27T11:52:45.881Z,79.90
2019-01-27T11:55:14.819Z,80.00
2019-01-27T11:57:41.513Z,79.30
2019-01-27T12:00:11.737Z,79.80
2019-01-27T12:02:46.294Z,79.30
2019-01-27T12:05:08.400Z,79.20
2019-01-27T12:07:35.128Z,80.80
2019-01-27T12:10:01.946Z,79.30
2019-01-27T12:12:33.632Z,78.30
2019-01-27T12:15:04.938Z,78.60
2019-01-27T12:17:34.713Z,77.40
2019-01-27T12:20:01.077Z,78.40
2019-01-27T12:22:27.569Z,77.20
2019-01-27T12:24:53.940Z,76.80
2019-01-27T12:27:20.189Z,76.80
2019-01-27T12:29:46.533Z,75.30
2019-01-27T12:32:13.025Z,75.40
2019-01-27T12:34:39.365Z,75.40
2019-01-27T12:37:05.839Z,74.70
2019-01-27T12:39:32.251Z,75.10
2019-01-27T12:41:59.466Z,75.20
2019-01-27T12:44:25.719Z,76.40
2019-01-27T12:46:52.099Z,76.30
2019-01-27T12:49:18.510Z,74.80
2019-01-27T12:51:44.856Z,75.00
2019-01-27T12:54:11.147Z,75.30
2019-01-27T12:56:37.621Z,76.10
2019-01-27T12:59:04.570Z,75.40
2019-01-27T13:01:31.055Z,75.00
2019-01-27T13:03:57.449Z,75.10
2019-01-27T13:06:23.682Z,76.20
2019-01-27T13:08:50.108Z,78.80
2019-01-27T13:11:16.457Z,80.10
2019-01-27T13:13:42.950Z,77.90
2019-01-27T13:16:09.315Z,77.50
2019-01-27T13:18:35.777Z,78.40
2019-01-27T13:21:02.240Z,78.70
2019-01-27T13:23:28.620Z,77.60
2019-01-27T13:25:55.104Z,77.00
2019-01-27T13:28:21.690Z,75.70
2019-01-27T13:30:47.931Z,77.40
2019-01-27T13:33:14.981Z,76.50
2019-01-27T13:35:41.704Z,75.70
2019-01-27T13:38:09.734Z,75.00
2019-01-27T13:40:37.665Z,74.90
2019-01-27T13:43:07.638Z,76.50
2019-01-27T13:45:35.354Z,76.10
2019-01-27T13:48:03.407Z,75.30
2019-01-27T13:50:30.699Z,74.60
2019-01-27T13:52:57.311Z,73.80
2019-01-27T13:55:31.725Z,73.40
2019-01-27T13:57:58.334Z,73.60
2019-01-27T14:00:30.292Z,72.50
2019-01-27T14:03:00.495Z,71.00
2019-01-27T14:05:27.854Z,70.70
2019-01-27T14:07:56.691Z,70.40
2019-01-27T14:10:25.189Z,69.60
2019-01-27T14:12:51.834Z,69.30
2019-01-27T14:15:26.755Z,68.40
2019-01-27T14:17:57.194Z,67.20
2019-01-27T14:20:24.460Z,67.50
2019-01-27T14:22:57.484Z,66.70
2019-01-27T14:25:26.506Z,67.50
2019-01-27T14:27:53.049Z,66.50
2019-01-27T14:30:28.683Z,66.60
2019-01-27T14:32:56.955Z,65.10
2019-01-27T14:35:23.433Z,65.30
2019-01-27T14:37:49.914Z,64.70
2019-01-27T14:40:21.725Z,64.20
2019-01-27T14:42:48.183Z,64.00
2019-01-27T14:45:17.205Z,63.90
2019-01-27T14:47:43.668Z,62.60
2019-01-27T14:50:12.948Z,62.10
2019-01-27T14:52:39.468Z,62.10
2019-01-27T14:55:09.171Z,61.50
2019-01-27T14:57:37.499Z,62.00
2019-01-27T15:00:10.586Z,62.40
2019-01-27T15:02:37.072Z,61.60
2019-01-27T15:05:07.083Z,61.90
2019-01-27T15:07:33.569Z,62.20
2019-01-27T15:10:06.450Z,62.40
2019-01-27T15:12:32.708Z,62.50
2019-01-27T15:14:59.203Z,63.20
2019-01-27T15:17:25.837Z,63.10
2019-01-27T15:19:52.209Z,62.50
2019-01-27T15:22:20.927Z,63.30
2019-01-27T15:24:47.222Z,63.10
2019-01-27T15:27:15.134Z,63.10
2019-01-27T15:29:41.466Z,62.50
2019-01-27T15:32:08.052Z,63.20
2019-01-27T15:34:34.315Z,63.30
2019-01-27T15:37:00.587Z,63.30
2019-01-27T15:39:27.088Z,64.10
2019-01-27T15:41:53.562Z,63.90
2019-01-27T15:44:21.994Z,64.30
2019-01-27T15:46:48.493Z,65.00
2019-01-27T15:49:14.909Z,65.40
2019-01-27T15:51:41.211Z,65.90
2019-01-27T15:54:07.563Z,66.10
2019-01-27T15:56:33.941Z,66.30
2019-01-27T15:59:00.233Z,66.80
2019-01-27T16:01:26.654Z,67.10
2019-01-27T16:03:53.142Z,67.80
2019-01-27T16:06:24.523Z,68.00
2019-01-27T16:08:50.900Z,68.60
2019-01-27T16:11:17.256Z,69.40
2019-01-27T16:13:43.741Z,70.20
2019-01-27T16:16:10.075Z,71.20
2019-01-27T16:18:36.553Z,71.80
2019-01-27T16:21:03.042Z,72.80
2019-01-27T16:23:31.211Z,73.70
2019-01-27T16:25:58.693Z,74.60
2019-01-27T16:28:25.120Z,76.00
2019-01-27T16:30:53.438Z,77.50
2019-01-27T16:33:21.732Z,79.30
2019-01-27T16:35:48.182Z,81.30
2019-01-27T16:38:14.482Z,82.70
2019-01-27T16:40:41.065Z,83.60
2019-01-27T16:43:09.010Z,84.20
2019-01-27T16:45:35.454Z,85.00
2019-01-27T16:48:01.803Z,86.50
2019-01-27T16:50:28.231Z,86.30
2019-01-27T16:52:54.566Z,87.10
2019-01-27T16:55:21.101Z,88.00
2019-01-27T16:57:47.901Z,88.50
2019-01-27T17:00:20.769Z,89.20
2019-01-27T17:02:47.202Z,89.30
2019-01-27T17:05:14.983Z,89.90
2019-01-27T17:07:41.443Z,90.00
2019-01-27T17:10:11.502Z,90.10
2019-01-27T17:12:37.947Z,90.20
2019-01-27T17:15:07.136Z,90.30
2019-01-27T17:17:33.701Z,90.20
2019-01-27T17:20:02.720Z,90.50
2019-01-27T17:22:28.051Z,90.90
2019-01-27T17:24:54.510Z,90.90
2019-01-27T17:27:20.929Z,90.90
2019-01-27T17:29:47.258Z,91.00
2019-01-27T17:32:13.613Z,90.90
2019-01-27T17:34:39.995Z,90.70
2019-01-27T17:37:06.444Z,91.10
2019-01-27T17:39:32.851Z,91.40
2019-01-27T17:41:59.390Z,91.30
2019-01-27T17:44:25.871Z,92.00
2019-01-27T17:46:52.258Z,92.20
2019-01-27T17:49:18.628Z,92.20
2019-01-27T17:51:44.977Z,92.30
2019-01-27T17:54:11.380Z,92.70
2019-01-27T17:56:37.831Z,92.70
2019-01-27T17:59:11.233Z,92.90
2019-01-27T18:01:54.519Z,92.90
2019-01-27T18:04:28.424Z,92.90
2019-01-27T18:07:02.582Z,92.90
2019-01-27T18:09:39.565Z,93.00
2019-01-27T18:12:07.925Z,92.90
2019-01-27T18:14:34.853Z,93.10
2019-01-27T18:17:01.125Z,93.00
2019-01-27T18:19:28.553Z,92.90
2019-01-27T18:21:55.047Z,92.90
2019-01-27T18:24:21.464Z,92.90
2019-01-27T18:26:47.709Z,92.90
2019-01-27T18:29:14.150Z,93.00
2019-01-27T18:31:40.600Z,93.00
2019-01-27T18:34:06.959Z,93.10
2019-01-27T18:36:33.425Z,93.10
2019-01-27T18:38:59.931Z,93.10
2019-01-27T18:41:26.466Z,93.20
2019-01-27T18:43:52.866Z,93.20
2019-01-27T18:46:19.238Z,93.30
2019-01-27T18:48:45.673Z,93.30
2019-01-27T18:51:12.237Z,93.20
2019-01-27T18:53:57.126Z,93.10
2019-01-27T18:56:25.440Z,93.20
2019-01-27T18:59:05.900Z,93.20
2019-01-27T19:01:39.841Z,93.30
2019-01-27T19:04:08.222Z,93.40
2019-01-27T19:06:54.690Z,93.40
2019-01-27T19:09:22.958Z,93.60
2019-01-27T19:11:51.341Z,94.00
2019-01-27T19:14:28.575Z,94.10
2019-01-27T19:17:08.734Z,94.10
2019-01-27T19:19:42.665Z,94.20
2019-01-27T19:22:10.898Z,94.30
2019-01-27T19:24:56.067Z,94.40
2019-01-27T19:27:27.209Z,94.40
2019-01-27T19:29:55.354Z,94.50
2019-01-27T19:32:35.891Z,94.50
2019-01-27T19:35:11.297Z,94.70
2019-01-27T19:37:42.307Z,94.60
2019-01-27T19:40:13.745Z,94.60
2019-01-27T19:42:50.947Z,94.70
2019-01-27T19:45:19.389Z,94.70
2019-01-27T19:48:00.362Z,94.70
2019-01-27T19:50:31.926Z,94.60
2019-01-27T19:53:03.954Z,94.60
2019-01-27T19:55:35.709Z,94.50
2019-01-27T19:58:08.080Z,94.50
2019-01-27T20:00:42.460Z,94.50
2019-01-27T20:03:11.561Z,94.60
2019-01-27T20:05:43.871Z,94.40
2019-01-27T20:08:12.973Z,94.30
2019-01-27T20:10:53.705Z,94.20
2019-01-27T20:13:22.116Z,94.10
2019-01-27T20:16:06.927Z,94.10
2019-01-27T20:18:50.547Z,93.90
2019-01-27T20:21:21.803Z,93.80
2019-01-27T20:23:52.999Z,93.80
2019-01-27T20:26:24.248Z,93.50
2019-01-27T20:28:55.436Z,93.30
2019-01-27T20:31:41.648Z,93.20
2019-01-27T20:34:12.603Z,93.00
2019-01-27T20:36:46.769Z,92.70
2019-01-27T20:39:14.961Z,92.40
2019-01-27T20:41:46.292Z,92.00
2019-01-27T20:44:31.080Z,91.60
2019-01-27T20:47:02.292Z,91.50
2019-01-27T20:49:45.400Z,91.60
2019-01-27T20:52:13.692Z,91.10
2019-01-27T20:54:41.852Z,90.70
2019-01-27T20:57:10.085Z,90.50
2019-01-27T20:59:55.096Z,90.50
2019-01-27T21:02:29.020Z,90.60
2019-01-27T21:05:09.228Z,90.30
2019-01-27T21:07:40.119Z,90.60
2019-01-27T21:10:23.233Z,90.40
2019-01-27T21:13:09.743Z,90.60
2019-01-27T21:15:37.903Z,90.40
2019-01-27T21:18:23.169Z,90.40
2019-01-27T21:20:53.643Z,90.50
2019-01-27T21:23:20.146Z,90.30
2019-01-27T21:25:46.642Z,90.40
2019-01-27T21:28:12.878Z,90.40
2019-01-27T21:30:39.351Z,90.00
2019-01-27T21:33:05.961Z,89.80
2019-01-27T21:35:32.402Z,89.60
2019-01-27T21:37:58.795Z,88.60
2019-01-27T21:40:25.231Z,88.60
2019-01-27T21:42:51.490Z,88.00
2019-01-27T21:45:18.087Z,87.40
2019-01-27T21:47:44.344Z,87.80
2019-01-27T21:50:13.618Z,88.00
2019-01-27T21:52:40.008Z,87.90
2019-01-27T21:55:07.493Z,87.80
2019-01-27T21:57:33.945Z,87.50
2019-01-27T22:00:00.314Z,87.60
2019-01-27T22:02:26.563Z,87.50
2019-01-27T22:04:52.937Z,88.40
2019-01-27T22:07:19.388Z,88.40
2019-01-27T22:09:45.779Z,88.40
2019-01-27T22:12:12.141Z,88.60
2019-01-27T22:14:38.420Z,88.20
2019-01-27T22:17:04.943Z,88.40
2019-01-27T22:19:31.346Z,88.50
2019-01-27T22:21:57.585Z,88.50
2019-01-27T22:24:24.027Z,88.30
2019-01-27T22:26:50.380Z,88.30
2019-01-27T22:29:16.741Z,88.60
2019-01-27T22:31:43.116Z,89.00
2019-01-27T22:34:09.664Z,89.20
2019-01-27T22:36:36.098Z,89.30
2019-01-27T22:39:05.656Z,90.10
2019-01-27T22:41:32.084Z,90.20
2019-01-27T22:43:58.500Z,90.50
2019-01-27T22:46:25.181Z,90.20
2019-01-27T22:48:51.530Z,90.40
2019-01-27T22:51:18.011Z,90.30
2019-01-27T22:53:44.298Z,90.50
2019-01-27T22:56:10.559Z,90.60
2019-01-27T22:58:36.813Z,90.70
2019-01-27T23:01:04.948Z,91.00
2019-01-27T23:03:31.939Z,91.30
2019-01-27T23:05:58.393Z,91.60
2019-01-27T23:08:24.721Z,91.90
2019-01-27T23:10:51.188Z,92.20
2019-01-27T23:13:17.514Z,92.30
2019-01-27T23:15:43.964Z,92.40
2019-01-27T23:18:10.229Z,92.60
2019-01-27T23:20:36.609Z,92.70
2019-01-27T23:23:03.237Z,92.60
2019-01-27T23:25:29.486Z,92.60
2019-01-27T23:27:55.750Z,92.60
2019-01-27T23:30:22.385Z,92.50
2019-01-27T23:32:48.877Z,92.50
2019-01-27T23:35:15.219Z,92.40
2019-01-27T23:37:41.839Z,92.40
2019-01-27T23:40:08.337Z,92.30
2019-01-27T23:42:34.779Z,92.20
2019-01-27T23:45:01.256Z,92.20
2019-01-27T23:47:27.500Z,92.10
2019-01-27T23:49:53.978Z,92.30
2019-01-27T23:52:20.332Z,92.50
2019-01-27T23:54:48.230Z,92.20
2019-01-27T23:57:14.553Z,92.20
2019-01-27T23:59:41.021Z,92.30
